createdAt,value
2022-08-22T00:01:37.408Z,18.13
2022-08-22T00:02:45.526Z,21.35
2022-08-22T00:02:45.630Z,21.13
2022-08-22T00:02:45.889Z,20.62
2022-08-22T00:06:35.181Z,18.1
2022-08-22T00:11:41.023Z,18.08
2022-08-22T00:16:35.542Z,18.05
2022-08-22T00:21:35.323Z,18.04
2022-08-22T00:26:43.303Z,18.01
2022-08-22T00:31:34.956Z,18
2022-08-22T00:36:33.893Z,17.99
2022-08-22T00:41:44.620Z,17.96
2022-08-22T00:46:44.730Z,17.95
2022-08-22T00:51:43.697Z,17.95
2022-08-22T00:56:48.649Z,17.93
2022-08-22T01:01:35.072Z,17.93
2022-08-22T01:06:36.786Z,17.92
2022-08-22T01:11:44.258Z,17.92
2022-08-22T01:16:44.127Z,17.91
2022-08-22T01:21:43.439Z,17.92
2022-08-22T01:26:44.758Z,17.91
2022-08-22T01:31:51.927Z,17.91
2022-08-22T01:36:50.733Z,17.9
2022-08-22T01:41:43.729Z,17.87
2022-08-22T01:46:47.040Z,17.87
2022-08-22T01:51:40.059Z,17.86
2022-08-22T01:56:36.763Z,17.84
2022-08-22T02:01:37.468Z,17.83
2022-08-22T02:06:36.029Z,17.82
2022-08-22T02:11:42.407Z,17.82
2022-08-22T02:16:39.113Z,17.79
2022-08-22T02:21:36.612Z,17.77
2022-08-22T02:26:41.244Z,17.77
2022-08-22T02:31:39.800Z,17.74
2022-08-22T02:36:35.143Z,17.71
2022-08-22T02:41:35.848Z,17.69
2022-08-22T02:46:34.738Z,17.68
2022-08-22T02:51:37.075Z,17.65
2022-08-22T02:56:36.301Z,17.64
2022-08-22T03:01:38.649Z,17.59
2022-08-22T03:06:46.360Z,17.53
2022-08-22T03:11:33.421Z,17.56
2022-08-22T03:16:37.618Z,17.53
2022-08-22T03:21:35.098Z,17.51
2022-08-22T03:26:36.106Z,17.48
2022-08-22T03:31:33.699Z,17.44
2022-08-22T03:36:42.518Z,17.41
2022-08-22T03:41:45.585Z,17.38
2022-08-22T03:46:46.130Z,17.36
2022-08-22T03:51:44.113Z,17.3
2022-08-22T03:56:44.732Z,17.26
2022-08-22T04:01:43.756Z,17.25
2022-08-22T04:07:00.079Z,17.19
2022-08-22T04:11:52.573Z,17.21
2022-08-22T04:16:41.695Z,17.22
2022-08-22T04:21:45.311Z,17.22
2022-08-22T04:26:41.284Z,17.22
2022-08-22T04:31:36.861Z,17.23
2022-08-22T04:36:43.844Z,17.25
2022-08-22T04:41:36.077Z,17.29
2022-08-22T04:46:39.730Z,17.3
2022-08-22T04:51:36.966Z,17.31
2022-08-22T04:56:40.047Z,17.3
2022-08-22T05:01:42.350Z,17.3
2022-08-22T05:06:43.456Z,17.31
2022-08-22T05:11:33.959Z,17.31
2022-08-22T05:16:34.265Z,17.31
2022-08-22T05:21:35.187Z,17.34
2022-08-22T05:26:33.091Z,17.38
2022-08-22T05:31:34.085Z,17.41
2022-08-22T05:36:43.902Z,17.48
2022-08-22T05:41:33.097Z,17.55
2022-08-22T05:46:36.619Z,17.64
2022-08-22T05:51:40.619Z,17.74
2022-08-22T05:56:37.884Z,17.83
2022-08-22T06:01:36.452Z,17.94
2022-08-22T06:06:33.673Z,18.06
2022-08-22T06:11:34.136Z,18.21
2022-08-22T06:16:37.839Z,18.37
2022-08-22T06:21:39.251Z,18.57
2022-08-22T06:26:34.539Z,18.77
2022-08-22T06:31:34.232Z,19.1
2022-08-22T06:36:35.090Z,19.48
2022-08-22T06:41:34.758Z,19.95
2022-08-22T06:46:33.167Z,20.48
2022-08-22T06:51:32.923Z,20.98
2022-08-22T06:56:33.925Z,21.45
2022-08-22T07:01:36.842Z,21.75
2022-08-22T07:06:33.645Z,22.07
2022-08-22T07:11:33.826Z,22.47
2022-08-22T07:16:37.579Z,22.87
2022-08-22T07:21:36.256Z,23.17
2022-08-22T07:26:36.701Z,23.45
2022-08-22T07:31:36.887Z,23.71
2022-08-22T07:36:33.757Z,24.06
2022-08-22T07:41:38.064Z,24.34
2022-08-22T07:46:36.442Z,24.58
2022-08-22T07:51:36.850Z,24.82
2022-08-22T07:56:34.386Z,25.06
2022-08-22T08:01:32.911Z,25.23
2022-08-22T08:06:32.638Z,25.49
2022-08-22T08:11:34.943Z,25.73
2022-08-22T08:16:36.531Z,25.95
2022-08-22T08:21:37.486Z,26.11
2022-08-22T08:26:35.114Z,26.25
2022-08-22T08:31:35.156Z,26.51
2022-08-22T08:36:37.671Z,26.81
2022-08-22T08:41:51.016Z,27.04
2022-08-22T08:46:46.202Z,27.27
2022-08-22T08:51:45.499Z,27.5
2022-08-22T08:56:38.567Z,27.76
2022-08-22T09:01:41.453Z,28.04
2022-08-22T09:06:50.684Z,28.3
2022-08-22T09:11:50.679Z,28.53
2022-08-22T09:16:38.459Z,28.71
2022-08-22T09:21:43.373Z,28.92
2022-08-22T09:26:39.828Z,29.1
2022-08-22T09:31:47.990Z,29.31
2022-08-22T09:36:36.070Z,29.52
2022-08-22T09:41:39.178Z,29.69
2022-08-22T09:46:37.188Z,29.9
2022-08-22T09:51:38.589Z,30.07
2022-08-22T09:56:39.897Z,30.38
2022-08-22T10:01:35.717Z,30.64
2022-08-22T10:06:35.448Z,30.97
2022-08-22T10:11:33.903Z,31.26
2022-08-22T10:16:37.296Z,31.47
2022-08-22T10:21:37.248Z,31.67
2022-08-22T10:26:39.069Z,31.8
2022-08-22T10:31:41.146Z,31.97
2022-08-22T10:36:37.011Z,32.17
2022-08-22T10:41:38.093Z,32.35
2022-08-22T10:46:35.232Z,32.57
2022-08-22T10:51:47.460Z,32.78
2022-08-22T10:56:35.455Z,32.98
2022-08-22T11:01:41.616Z,33.15
2022-08-22T11:06:34.584Z,33.37
2022-08-22T11:11:40.254Z,33.48
2022-08-22T11:16:41.561Z,33.61
2022-08-22T11:21:37.027Z,33.82
2022-08-22T11:26:46.629Z,33.96
2022-08-22T11:31:38.318Z,34.07
2022-08-22T11:36:39.991Z,34.2
2022-08-22T11:41:35.085Z,34.32
2022-08-22T11:46:33.925Z,34.37
2022-08-22T11:51:40.627Z,34.34
2022-08-22T11:56:35.399Z,34.02
2022-08-22T12:01:39.350Z,33.68
2022-08-22T12:06:51.211Z,33.46
2022-08-22T12:11:39.649Z,33.44
2022-08-22T12:16:36.154Z,33.57
2022-08-22T12:21:56.021Z,33.72
2022-08-22T12:26:36.809Z,33.84
2022-08-22T12:31:37.830Z,34.03
2022-08-22T12:36:46.097Z,34.31
2022-08-22T12:41:39.870Z,34.51
2022-08-22T12:46:47.159Z,34.73
2022-08-22T12:51:36.146Z,34.88
2022-08-22T12:56:37.137Z,34.96
2022-08-22T13:01:42.633Z,35.06
2022-08-22T13:06:48.783Z,35.11
2022-08-22T13:11:33.724Z,35.21
2022-08-22T13:16:40.383Z,35.47
2022-08-22T13:21:38.185Z,35.73
2022-08-22T13:26:33.459Z,35.84
2022-08-22T13:31:34.039Z,35.9
2022-08-22T13:36:33.946Z,35.93
2022-08-22T13:41:34.155Z,35.86
2022-08-22T13:46:35.537Z,35.83
2022-08-22T13:51:34.761Z,35.87
2022-08-22T13:56:33.878Z,35.85
2022-08-22T14:01:43.941Z,35.82
2022-08-22T14:06:41.232Z,35.8
2022-08-22T14:11:35.744Z,35.81
2022-08-22T14:16:37.609Z,35.91
2022-08-22T14:21:40.719Z,35.94
2022-08-22T14:26:37.520Z,36.03
2022-08-22T14:31:32.742Z,36.03
2022-08-22T14:36:33.750Z,36
2022-08-22T14:41:52.986Z,35.94
2022-08-22T14:46:35.425Z,35.86
2022-08-22T14:51:32.753Z,35.76
2022-08-22T14:56:33.558Z,35.65
2022-08-22T15:01:33.480Z,35.52
2022-08-22T15:06:47.760Z,35.4
2022-08-22T15:11:34.744Z,35.32
2022-08-22T15:16:34.146Z,35.22
2022-08-22T15:21:37.223Z,35.18
2022-08-22T15:26:36.098Z,35.03
2022-08-22T15:31:32.610Z,34.86
2022-08-22T15:36:32.112Z,34.74
2022-08-22T15:41:43.627Z,34.65
2022-08-22T15:46:37.329Z,34.53
2022-08-22T15:51:44.325Z,34.35
2022-08-22T15:56:33.982Z,34.16
2022-08-22T16:01:42.216Z,34.02
2022-08-22T16:06:44.705Z,33.88
2022-08-22T16:11:37.522Z,33.79
2022-08-22T16:16:43.881Z,33.67
2022-08-22T16:21:43.100Z,33.49
2022-08-22T16:26:41.053Z,33.28
2022-08-22T16:31:35.069Z,33.11
2022-08-22T16:36:46.319Z,32.9
2022-08-22T16:41:34.351Z,32.72
2022-08-22T16:46:41.211Z,32.55
2022-08-22T16:51:32.056Z,32.38
2022-08-22T16:56:37.168Z,32.12
2022-08-22T17:01:41.990Z,31.78
2022-08-22T17:06:45.897Z,31.47
2022-08-22T17:11:44.518Z,31.23
2022-08-22T17:16:39.839Z,30.96
2022-08-22T17:21:36.683Z,30.71
2022-08-22T17:26:39.976Z,30.48
2022-08-22T17:31:36.079Z,30.26
2022-08-22T17:36:37.607Z,30.04
2022-08-22T17:41:41.234Z,29.81
2022-08-22T17:46:39.725Z,29.58
2022-08-22T17:51:36.573Z,29.32
2022-08-22T17:56:36.227Z,29.04
2022-08-22T18:01:43.093Z,28.72
2022-08-22T18:06:34.607Z,28.42
2022-08-22T18:11:40.278Z,28.11
2022-08-22T18:16:35.110Z,27.83
2022-08-22T18:21:36.141Z,27.53
2022-08-22T18:26:35.003Z,27.25
2022-08-22T18:31:43.380Z,26.98
2022-08-22T18:36:34.601Z,26.71
2022-08-22T18:41:36.692Z,26.44
2022-08-22T18:46:45.505Z,26.18
2022-08-22T18:51:35.499Z,25.93
2022-08-22T18:56:48.373Z,25.7
2022-08-22T19:01:44.353Z,25.47
2022-08-22T19:06:52.749Z,25.24
2022-08-22T19:11:43.518Z,25.04
2022-08-22T19:16:45.257Z,24.85
2022-08-22T19:21:45.225Z,24.66
2022-08-22T19:26:34.207Z,24.47
2022-08-22T19:31:44.017Z,24.3
2022-08-22T19:36:38.394Z,24.15
2022-08-22T19:41:50.989Z,23.99
2022-08-22T19:46:38.862Z,23.87
2022-08-22T19:51:32.969Z,23.74
2022-08-22T19:56:38.072Z,23.61
2022-08-22T20:01:43.642Z,23.48
2022-08-22T20:06:44.459Z,23.38
2022-08-22T20:11:37.961Z,23.28
2022-08-22T20:16:42.558Z,23.19
2022-08-22T20:21:51.650Z,23.09
2022-08-22T20:26:32.469Z,23.02
2022-08-22T20:31:32.759Z,22.93
2022-08-22T20:36:35.854Z,22.87
2022-08-22T20:41:37.179Z,22.79
2022-08-22T20:46:43.920Z,22.73
2022-08-22T20:51:33.753Z,22.66
2022-08-22T20:56:53.457Z,22.59
2022-08-22T21:01:32.333Z,22.52
2022-08-22T21:06:38.905Z,22.47
2022-08-22T21:11:44.542Z,22.38
2022-08-22T21:16:35.709Z,22.32
2022-08-22T21:21:33.046Z,22.24
2022-08-22T21:26:32.838Z,22.16
2022-08-22T21:31:33.992Z,22.1
2022-08-22T21:36:34.268Z,22.05
2022-08-22T21:41:34.306Z,22.01
2022-08-22T21:46:32.504Z,21.99
2022-08-22T21:51:45.355Z,21.99
2022-08-22T21:56:34.944Z,21.99
2022-08-22T22:01:36.210Z,21.99
2022-08-22T22:06:32.206Z,22
2022-08-22T22:11:32.424Z,22
2022-08-22T22:16:33.817Z,21.98
2022-08-22T22:21:32.127Z,21.96
2022-08-22T22:26:32.628Z,21.93
2022-08-22T22:31:32.050Z,21.93
2022-08-22T22:36:36.814Z,21.92
2022-08-22T22:41:33.496Z,21.89
2022-08-22T22:46:32.221Z,21.88
2022-08-22T22:51:32.124Z,21.88
2022-08-22T22:56:32.217Z,21.87
2022-08-22T23:01:32.080Z,21.86
2022-08-22T23:06:32.988Z,21.82
2022-08-22T23:11:32.917Z,21.78
2022-08-22T23:16:37.160Z,21.74
2022-08-22T23:21:33.201Z,21.69
2022-08-22T23:26:34.985Z,21.66
2022-08-22T23:31:35.753Z,21.62
2022-08-22T23:36:32.055Z,21.55
2022-08-22T23:41:31.935Z,21.49
2022-08-22T23:46:32.168Z,21.43
2022-08-22T23:51:32.109Z,21.39
2022-08-22T23:56:35.108Z,21.34
